Time;durP1;ratioP1;P1;durP2;ratioP2;P2;SDS_P1;SDS_P2;PMS_P1;PMS_P2;Temp;Humidity;BMP_temperature;BMP_pressure;BME280_temperature;BME280_humidity;BME280_pressure;Samples;Min_cycle;Max_cycle;Signal;HPM_P1;HPM_P2
2022/11/09 00:02:25;;;;;;;;;;;21.70;99.90;;;;;;5110139;28;19915;-68
2022/11/09 00:04:51;;;;;;;;;;;21.70;99.90;;;;;;5110166;28;19951;-68
2022/11/09 00:07:18;;;;;;;;;;;21.70;99.90;;;;;;5098369;28;19958;-69
2022/11/09 00:09:45;;;;;;;;;;;21.60;99.90;;;;;;5096499;28;19908;-68
2022/11/09 00:12:11;;;;;;;;;;;21.60;99.90;;;;;;5096412;28;19948;-68
2022/11/09 00:14:38;;;;;;;;;;;21.70;99.90;;;;;;5096287;28;19954;-68
2022/11/09 00:17:05;;;;;;;;;;;21.70;99.90;;;;;;5096196;28;19916;-67
2022/11/09 00:19:31;;;;;;;;;;;21.60;99.90;;;;;;5096429;28;19908;-69
2022/11/09 00:21:58;;;;;;;;;;;21.50;99.90;;;;;;5096280;28;19912;-68
2022/11/09 00:24:24;;;;;;;;;;;21.40;99.90;;;;;;5096444;28;19908;-68
2022/11/09 00:26:51;;;;;;;;;;;21.40;99.90;;;;;;5096059;28;19946;-67
2022/11/09 00:29:18;;;;;;;;;;;21.30;99.90;;;;;;5096537;28;19947;-68
2022/11/09 00:31:44;;;;;;;;;;;21.40;99.90;;;;;;5096429;28;19920;-68
2022/11/09 00:34:11;;;;;;;;;;;21.60;99.90;;;;;;5096360;28;19912;-68
2022/11/09 00:36:38;;;;;;;;;;;21.80;99.90;;;;;;5096151;28;19919;-68
2022/11/09 00:39:04;;;;;;;;;;;22.00;99.90;;;;;;5096064;28;20013;-68
2022/11/09 00:41:31;;;;;;;;;;;22.10;99.90;;;;;;5096329;28;20358;-68
2022/11/09 00:43:58;;;;;;;;;;;22.40;99.90;;;;;;5096180;28;19952;-67
2022/11/09 00:46:24;;;;;;;;;;;22.50;99.90;;;;;;5096997;28;19922;-68
2022/11/09 00:48:51;;;;;;;;;;;23.20;99.90;;;;;;5096828;28;19944;-68
2022/11/09 00:51:18;;;;;;;;;;;24.00;99.90;;;;;;5105255;28;19931;-72
2022/11/09 00:53:47;;;;;;;;;;;24.70;99.90;;;;;;5100925;28;20248;-72
2022/11/09 00:56:13;;;;;;;;;;;25.00;99.90;;;;;;5103613;28;20399;-73
2022/11/09 00:58:40;;;;;;;;;;;25.40;99.90;;;;;;5101623;28;19947;-73
2022/11/09 01:01:07;;;;;;;;;;;25.90;99.40;;;;;;5099372;28;20006;-73
2022/11/09 01:03:34;;;;;;;;;;;26.20;98.60;;;;;;5098649;28;19908;-73
2022/11/09 01:06:00;;;;;;;;;;;26.30;99.10;;;;;;5096197;28;19908;-72
2022/11/09 01:08:27;;;;;;;;;;;26.20;99.10;;;;;;5095235;28;19947;-72
2022/11/09 01:10:54;;;;;;;;;;;26.00;98.60;;;;;;5094969;28;19915;-73
2022/11/09 01:13:20;;;;;;;;;;;26.00;98.40;;;;;;5094834;28;19993;-73
2022/11/09 01:15:48;;;;;;;;;;;25.90;98.50;;;;;;5095068;28;19969;-73
2022/11/09 01:18:15;;;;;;;;;;;26.10;98.50;;;;;;5094044;28;19908;-73
2022/11/09 01:20:43;;;;;;;;;;;26.10;98.10;;;;;;5095113;28;20003;-72
2022/11/09 01:23:10;;;;;;;;;;;26.10;97.70;;;;;;5094699;28;19908;-72
2022/11/09 01:25:37;;;;;;;;;;;26.30;98.20;;;;;;5095907;28;20420;-69
2022/11/09 01:28:04;;;;;;;;;;;26.30;97.80;;;;;;5095788;28;19954;-73
2022/11/09 01:30:33;;;;;;;;;;;26.20;98.30;;;;;;5094842;28;19912;-74
2022/11/09 01:33:02;;;;;;;;;;;25.70;98.40;;;;;;5094620;28;19914;-72
2022/11/09 01:35:29;;;;;;;;;;;25.10;98.70;;;;;;5094728;28;19920;-69
2022/11/09 01:37:55;;;;;;;;;;;24.40;99.20;;;;;;5094536;28;20374;-73
2022/11/09 01:40:22;;;;;;;;;;;23.70;99.90;;;;;;5094321;28;19911;-72
2022/11/09 01:42:49;;;;;;;;;;;23.20;99.80;;;;;;5093966;28;20011;-72
2022/11/09 01:45:18;;;;;;;;;;;23.00;99.90;;;;;;5094339;28;19912;-72
2022/11/09 01:47:47;;;;;;;;;;;23.20;99.90;;;;;;5094359;28;19908;-73
2022/11/09 01:50:15;;;;;;;;;;;23.30;99.90;;;;;;5094359;28;19966;-72
2022/11/09 01:52:43;;;;;;;;;;;23.20;99.80;;;;;;5094199;28;20366;-73
2022/11/09 01:55:12;;;;;;;;;;;23.00;99.90;;;;;;5094008;28;20390;-72
2022/11/09 01:57:43;;;;;;;;;;;23.10;99.90;;;;;;5094105;28;19950;-72
2022/11/09 02:00:11;;;;;;;;;;;22.90;99.90;;;;;;5094290;28;19922;-71
2022/11/09 02:02:39;;;;;;;;;;;23.00;99.90;;;;;;5094378;28;20359;-72
2022/11/09 02:05:08;;;;;;;;;;;22.90;99.70;;;;;;5093900;28;19931;-72
2022/11/09 02:07:35;;;;;;;;;;;22.80;99.40;;;;;;5092783;28;19908;-73
2022/11/09 02:10:20;;;;;;;;;;;22.70;99.10;;;;;;5094429;28;19908;-72
2022/11/09 02:12:47;;;;;;;;;;;22.60;99.70;;;;;;5093770;28;19908;-73
2022/11/09 02:15:14;;;;;;;;;;;22.50;99.20;;;;;;5094038;28;19970;-73
2022/11/09 02:17:42;;;;;;;;;;;22.50;99.90;;;;;;5093934;28;19915;-72
2022/11/09 02:20:12;;;;;;;;;;;22.50;99.90;;;;;;5093957;28;19912;-72
2022/11/09 02:22:40;;;;;;;;;;;22.50;99.80;;;;;;5094010;28;20006;-73
2022/11/09 02:25:07;;;;;;;;;;;22.70;99.90;;;;;;5093479;28;19912;-72
2022/11/09 02:27:35;;;;;;;;;;;22.60;99.90;;;;;;5093718;28;19912;-72
2022/11/09 02:30:02;;;;;;;;;;;22.40;99.90;;;;;;5093341;28;19908;-72
2022/11/09 02:32:29;;;;;;;;;;;22.40;99.90;;;;;;5093808;28;19908;-73
2022/11/09 02:34:56;;;;;;;;;;;22.40;99.90;;;;;;5093231;28;19924;-72
2022/11/09 02:37:37;;;;;;;;;;;22.40;99.90;;;;;;5093588;28;19938;-72
2022/11/09 02:40:08;;;;;;;;;;;22.40;99.90;;;;;;5093489;28;19908;-72
2022/11/09 02:42:35;;;;;;;;;;;22.40;99.90;;;;;;5093625;28;19998;-72
2022/11/09 02:45:02;;;;;;;;;;;22.30;99.90;;;;;;5091825;28;19915;-72
2022/11/09 02:47:29;;;;;;;;;;;22.20;99.90;;;;;;5093465;28;19997;-71
2022/11/09 02:49:58;;;;;;;;;;;22.30;99.90;;;;;;5093011;28;19908;-72
2022/11/09 02:52:25;;;;;;;;;;;22.40;99.90;;;;;;5093632;28;19919;-72
2022/11/09 02:54:52;;;;;;;;;;;22.40;99.90;;;;;;5092706;28;19920;-72
2022/11/09 02:57:18;;;;;;;;;;;22.30;99.90;;;;;;5093036;28;19959;-72
2022/11/09 02:59:45;;;;;;;;;;;22.30;99.90;;;;;;5093259;28;19912;-73
2022/11/09 03:02:11;;;;;;;;;;;22.20;99.90;;;;;;5093341;28;19955;-73
2022/11/09 03:04:38;;;;;;;;;;;22.20;99.90;;;;;;5093197;28;19973;-71
2022/11/09 03:07:05;;;;;;;;;;;22.30;99.90;;;;;;5093207;28;20483;-72
2022/11/09 03:09:31;;;;;;;;;;;22.30;99.90;;;;;;5093244;28;19922;-72
2022/11/09 03:11:58;;;;;;;;;;;22.40;99.90;;;;;;5092989;28;19912;-72
2022/11/09 03:14:25;;;;;;;;;;;22.40;99.70;;;;;;5093074;28;19977;-72
2022/11/09 03:16:51;;;;;;;;;;;22.20;99.50;;;;;;5092948;28;20010;-72
2022/11/09 03:19:18;;;;;;;;;;;22.30;99.30;;;;;;5093162;28;20366;-72
2022/11/09 03:21:45;;;;;;;;;;;22.30;99.90;;;;;;5093214;28;19960;-72
2022/11/09 03:24:11;;;;;;;;;;;22.20;99.40;;;;;;5093124;28;19962;-72
2022/11/09 03:26:38;;;;;;;;;;;22.10;99.20;;;;;;5093031;28;20366;-72
2022/11/09 03:29:05;;;;;;;;;;;22.10;99.30;;;;;;5093023;28;20207;-71
2022/11/09 03:31:31;;;;;;;;;;;22.10;99.60;;;;;;5092798;28;19954;-73
2022/11/09 03:33:58;;;;;;;;;;;22.00;99.90;;;;;;5093033;28;19912;-72
2022/11/09 03:36:25;;;;;;;;;;;22.10;99.90;;;;;;5093065;28;20344;-72
2022/11/09 03:38:51;;;;;;;;;;;22.20;98.90;;;;;;5092974;28;19908;-72
2022/11/09 03:41:18;;;;;;;;;;;22.20;99.50;;;;;;5093752;28;19912;-72
2022/11/09 03:43:44;;;;;;;;;;;22.10;98.20;;;;;;5096704;28;19914;-72
2022/11/09 03:46:11;;;;;;;;;;;22.00;99.10;;;;;;5096755;28;19908;-72
2022/11/09 03:48:38;;;;;;;;;;;22.00;98.00;;;;;;5096608;28;20370;-72
2022/11/09 03:51:04;;;;;;;;;;;21.90;99.40;;;;;;5096459;28;19908;-72
2022/11/09 03:53:31;;;;;;;;;;;22.00;97.90;;;;;;5096773;28;19908;-72
2022/11/09 03:55:58;;;;;;;;;;;22.10;97.90;;;;;;5096386;28;19924;-73
2022/11/09 03:58:24;;;;;;;;;;;22.10;97.40;;;;;;5096676;28;19974;-71
2022/11/09 04:00:51;;;;;;;;;;;22.10;97.30;;;;;;5096328;28;20346;-71
2022/11/09 04:03:18;;;;;;;;;;;22.10;98.20;;;;;;5096370;28;20354;-72
2022/11/09 04:05:44;;;;;;;;;;;22.00;95.50;;;;;;5096360;28;19908;-71
2022/11/09 04:08:11;;;;;;;;;;;22.00;96.40;;;;;;5096534;28;19985;-72
2022/11/09 04:10:38;;;;;;;;;;;22.00;96.70;;;;;;5096275;28;19912;-72
2022/11/09 04:13:04;;;;;;;;;;;22.00;95.60;;;;;;5095847;28;19908;-72
2022/11/09 04:15:31;;;;;;;;;;;22.10;96.40;;;;;;5095913;28;19923;-72
2022/11/09 04:17:59;;;;;;;;;;;22.10;95.40;;;;;;5096238;28;19935;-72
2022/11/09 04:20:26;;;;;;;;;;;22.10;93.90;;;;;;5096159;28;19915;-73
2022/11/09 04:22:56;;;;;;;;;;;22.10;94.60;;;;;;5096015;28;20007;-72
2022/11/09 04:25:24;;;;;;;;;;;22.10;94.60;;;;;;5096093;28;19914;-72
2022/11/09 04:27:57;;;;;;;;;;;22.00;94.60;;;;;;5095831;28;19908;-72
2022/11/09 04:30:26;;;;;;;;;;;22.00;95.20;;;;;;5095987;28;19908;-72
2022/11/09 04:32:54;;;;;;;;;;;22.10;94.70;;;;;;5095833;28;20006;-72
2022/11/09 04:35:20;;;;;;;;;;;22.20;95.30;;;;;;5095941;28;20367;-72
2022/11/09 04:38:01;;;;;;;;;;;22.10;95.30;;;;;;5096673;28;19908;-72
2022/11/09 04:40:29;;;;;;;;;;;22.10;95.80;;;;;;5095913;28;20306;-70
2022/11/09 04:42:58;;;;;;;;;;;22.00;96.50;;;;;;5095367;28;19912;-71
2022/11/09 04:45:25;;;;;;;;;;;22.00;97.30;;;;;;5095759;28;19954;-72
2022/11/09 04:47:56;;;;;;;;;;;22.20;98.60;;;;;;5095581;28;19999;-71
2022/11/09 04:50:22;;;;;;;;;;;22.20;97.00;;;;;;5095474;28;19908;-71
2022/11/09 04:52:49;;;;;;;;;;;22.00;98.30;;;;;;5095212;28;19931;-72
2022/11/09 04:55:16;;;;;;;;;;;21.70;99.20;;;;;;5095173;28;20069;-67
2022/11/09 04:57:42;;;;;;;;;;;21.60;99.00;;;;;;5095389;28;19915;-71
2022/11/09 05:00:09;;;;;;;;;;;21.50;99.90;;;;;;5095381;28;19908;-70
2022/11/09 05:02:36;;;;;;;;;;;21.40;97.90;;;;;;5095476;28;19991;-68
2022/11/09 05:05:03;;;;;;;;;;;21.50;99.00;;;;;;5095097;28;19908;-71
2022/11/09 05:07:29;;;;;;;;;;;21.50;97.80;;;;;;5095122;28;19954;-70
2022/11/09 05:09:56;;;;;;;;;;;21.50;98.40;;;;;;5094010;28;20326;-71
2022/11/09 05:12:22;;;;;;;;;;;21.50;98.90;;;;;;5094937;28;19908;-68
2022/11/09 05:14:49;;;;;;;;;;;21.50;97.80;;;;;;5094857;28;19952;-71
2022/11/09 05:17:16;;;;;;;;;;;21.40;98.60;;;;;;5095050;28;19908;-71
2022/11/09 05:19:43;;;;;;;;;;;21.30;98.20;;;;;;5095060;28;19926;-69
2022/11/09 05:24:54;;;;;;;;;;;21.30;99.80;;;;;;5094957;28;19922;-70
2022/11/09 05:27:21;;;;;;;;;;;21.20;99.20;;;;;;5094783;28;20409;-70
2022/11/09 05:29:47;;;;;;;;;;;21.20;99.90;;;;;;5094758;28;20266;-73
2022/11/09 05:32:14;;;;;;;;;;;21.20;99.90;;;;;;5094751;28;19908;-70
2022/11/09 05:34:41;;;;;;;;;;;21.40;99.20;;;;;;5094633;28;20333;-71
2022/11/09 05:37:07;;;;;;;;;;;21.40;99.40;;;;;;5094306;28;19912;-72
2022/11/09 05:39:34;;;;;;;;;;;21.30;99.40;;;;;;5094497;28;19908;-70
2022/11/09 05:42:00;;;;;;;;;;;21.20;99.20;;;;;;5094469;28;20037;-71
2022/11/09 05:44:27;;;;;;;;;;;21.20;98.90;;;;;;5094341;28;19961;-70
2022/11/09 05:46:54;;;;;;;;;;;21.10;99.80;;;;;;5093935;28;19974;-71
2022/11/09 05:49:20;;;;;;;;;;;21.20;99.90;;;;;;5094337;28;19962;-70
2022/11/09 05:51:47;;;;;;;;;;;21.00;99.90;;;;;;5092527;28;20434;-71
2022/11/09 05:54:14;;;;;;;;;;;21.00;99.90;;;;;;5092042;28;19920;-69
2022/11/09 05:56:40;;;;;;;;;;;21.00;99.90;;;;;;5092146;28;20417;-71
2022/11/09 05:59:07;;;;;;;;;;;21.00;99.90;;;;;;5091998;28;19909;-72
2022/11/09 06:01:34;;;;;;;;;;;20.90;99.90;;;;;;5092028;28;19912;-69
2022/11/09 06:04:01;;;;;;;;;;;20.90;99.90;;;;;;5091296;28;19912;-71
2022/11/09 06:06:28;;;;;;;;;;;21.00;99.90;;;;;;5091866;28;19943;-70
2022/11/09 06:08:55;;;;;;;;;;;20.90;99.90;;;;;;5091698;28;20314;-70
2022/11/09 06:11:22;;;;;;;;;;;21.00;99.90;;;;;;5091724;28;19912;-71
2022/11/09 06:13:48;;;;;;;;;;;20.90;99.90;;;;;;5091606;28;20346;-70
2022/11/09 06:16:15;;;;;;;;;;;20.80;99.90;;;;;;5091680;28;20038;-67
2022/11/09 06:18:42;;;;;;;;;;;20.80;99.90;;;;;;5091326;28;19955;-71
2022/11/09 06:21:09;;;;;;;;;;;20.80;99.90;;;;;;5091388;28;19914;-70
2022/11/09 06:23:36;;;;;;;;;;;20.80;99.90;;;;;;5091763;28;20308;-70
2022/11/09 06:26:08;;;;;;;;;;;20.70;99.90;;;;;;5091420;28;19947;-71
2022/11/09 06:28:35;;;;;;;;;;;20.70;99.90;;;;;;5091632;28;19915;-72
2022/11/09 06:31:04;;;;;;;;;;;20.70;99.90;;;;;;5091014;28;19971;-69
2022/11/09 06:33:31;;;;;;;;;;;20.70;99.90;;;;;;5091418;28;19912;-71
2022/11/09 06:35:58;;;;;;;;;;;20.70;99.90;;;;;;5091396;28;20286;-70
2022/11/09 06:38:25;;;;;;;;;;;20.70;99.90;;;;;;5091407;28;20010;-71
2022/11/09 06:40:52;;;;;;;;;;;20.70;99.90;;;;;;5091190;28;19947;-71
2022/11/09 06:43:19;;;;;;;;;;;20.60;99.90;;;;;;5091011;28;20385;-71
2022/11/09 06:45:46;;;;;;;;;;;20.60;99.90;;;;;;5091220;28;19912;-69
2022/11/09 06:48:13;;;;;;;;;;;20.50;99.90;;;;;;5091264;28;19908;-71
2022/11/09 06:50:39;;;;;;;;;;;20.50;99.90;;;;;;5091266;28;20061;-71
2022/11/09 06:53:07;;;;;;;;;;;20.40;99.90;;;;;;5091180;28;20351;-69
2022/11/09 06:55:34;;;;;;;;;;;20.40;99.90;;;;;;5090784;28;19939;-70
2022/11/09 06:58:06;;;;;;;;;;;20.40;99.90;;;;;;5090930;28;19912;-71
2022/11/09 07:00:32;;;;;;;;;;;20.30;99.90;;;;;;5091120;28;19908;-70
2022/11/09 07:02:59;;;;;;;;;;;20.40;99.90;;;;;;5091001;28;20305;-70
2022/11/09 07:05:26;;;;;;;;;;;20.30;99.90;;;;;;5091202;28;19912;-71
2022/11/09 07:07:52;;;;;;;;;;;20.30;99.90;;;;;;5091185;28;20018;-71
2022/11/09 07:10:19;;;;;;;;;;;20.30;99.90;;;;;;5089423;28;19962;-71
2022/11/09 07:12:46;;;;;;;;;;;20.20;99.90;;;;;;5091019;28;20366;-69
2022/11/09 07:15:13;;;;;;;;;;;20.20;99.90;;;;;;5091018;28;20007;-71
2022/11/09 07:17:40;;;;;;;;;;;20.20;99.90;;;;;;5094444;28;20334;-70
2022/11/09 07:20:07;;;;;;;;;;;20.20;99.90;;;;;;5095077;28;19915;-71
2022/11/09 07:22:38;;;;;;;;;;;20.10;99.90;;;;;;5094817;28;19919;-71
2022/11/09 07:25:08;;;;;;;;;;;20.10;99.90;;;;;;5094962;28;19916;-71
2022/11/09 07:27:35;;;;;;;;;;;20.10;99.90;;;;;;5095117;28;19912;-72
2022/11/09 07:30:03;;;;;;;;;;;20.10;99.90;;;;;;5094913;28;19933;-72
2022/11/09 07:32:32;;;;;;;;;;;20.00;99.90;;;;;;5094868;28;20021;-72
2022/11/09 07:34:58;;;;;;;;;;;20.00;99.90;;;;;;5094629;28;19920;-71
2022/11/09 07:37:25;;;;;;;;;;;20.00;99.90;;;;;;5094504;28;19922;-71
2022/11/09 07:39:52;;;;;;;;;;;19.90;99.90;;;;;;5094721;28;19908;-72
2022/11/09 07:42:18;;;;;;;;;;;19.90;99.90;;;;;;5087123;28;19991;-71
2022/11/09 07:44:45;;;;;;;;;;;19.90;99.90;;;;;;5074109;28;19909;-69
2022/11/09 07:47:12;;;;;;;;;;;19.90;99.90;;;;;;5074459;28;19912;-69
2022/11/09 07:49:38;;;;;;;;;;;19.80;99.90;;;;;;5073421;28;19916;-69
2022/11/09 07:52:05;;;;;;;;;;;19.80;99.90;;;;;;5067485;28;19916;-69
2022/11/09 07:54:31;;;;;;;;;;;19.80;99.90;;;;;;5067500;28;20073;-70
2022/11/09 07:56:58;;;;;;;;;;;19.80;99.90;;;;;;5066948;28;19964;-70
2022/11/09 07:59:25;;;;;;;;;;;19.80;99.90;;;;;;5067595;28;19913;-70
2022/11/09 08:01:52;;;;;;;;;;;19.80;99.90;;;;;;5067868;28;19948;-68
2022/11/09 08:04:19;;;;;;;;;;;19.70;99.90;;;;;;5067434;28;19912;-70
2022/11/09 08:06:45;;;;;;;;;;;19.70;99.90;;;;;;5067111;28;19928;-69
2022/11/09 08:09:12;;;;;;;;;;;19.70;99.90;;;;;;5067668;28;20000;-71
2022/11/09 08:11:39;;;;;;;;;;;19.60;99.90;;;;;;5066941;28;19919;-71
2022/11/09 08:14:05;;;;;;;;;;;19.50;99.90;;;;;;5067611;28;19946;-68
2022/11/09 08:16:32;;;;;;;;;;;19.50;99.90;;;;;;5067585;28;19920;-71
2022/11/09 08:18:59;;;;;;;;;;;19.50;99.90;;;;;;5067297;28;19912;-69
2022/11/09 08:21:25;;;;;;;;;;;19.40;99.90;;;;;;5067358;28;19942;-72
2022/11/09 08:23:52;;;;;;;;;;;19.40;99.90;;;;;;5067436;28;19963;-71
2022/11/09 08:26:19;;;;;;;;;;;19.40;99.90;;;;;;5066803;28;19912;-72
2022/11/09 08:28:45;;;;;;;;;;;19.30;99.90;;;;;;5066182;28;20428;-70
2022/11/09 08:31:12;;;;;;;;;;;19.30;99.90;;;;;;5066611;28;20355;-72
2022/11/09 08:33:40;;;;;;;;;;;19.30;99.90;;;;;;5066396;28;19919;-70
2022/11/09 08:36:13;;;;;;;;;;;19.30;99.90;;;;;;5067273;28;19928;-71
2022/11/09 08:38:40;;;;;;;;;;;19.20;99.90;;;;;;5066755;28;20313;-69
2022/11/09 08:41:07;;;;;;;;;;;19.30;99.90;;;;;;5066601;28;20065;-72
2022/11/09 08:43:34;;;;;;;;;;;19.30;99.90;;;;;;5067171;28;19912;-72
2022/11/09 08:46:02;;;;;;;;;;;19.30;99.90;;;;;;5066353;28;19912;-73
2022/11/09 08:48:29;;;;;;;;;;;19.30;99.90;;;;;;5066849;28;19939;-68
2022/11/09 08:50:57;;;;;;;;;;;19.30;99.90;;;;;;5066292;28;19912;-73
2022/11/09 08:53:25;;;;;;;;;;;19.30;99.90;;;;;;5066549;28;19912;-71
2022/11/09 08:55:52;;;;;;;;;;;19.30;99.90;;;;;;5066282;28;19974;-72
2022/11/09 08:58:19;;;;;;;;;;;19.30;99.90;;;;;;5066575;28;19959;-68
2022/11/09 09:00:45;;;;;;;;;;;19.30;99.90;;;;;;5065844;28;20003;-70
2022/11/09 09:03:12;;;;;;;;;;;19.20;99.90;;;;;;5066504;28;19913;-71
2022/11/09 09:05:41;;;;;;;;;;;19.20;99.90;;;;;;5066230;28;19958;-72
2022/11/09 09:08:10;;;;;;;;;;;19.20;99.90;;;;;;5066481;28;19916;-71
2022/11/09 09:10:37;;;;;;;;;;;19.20;99.90;;;;;;5066203;28;20459;-70
2022/11/09 09:13:03;;;;;;;;;;;19.20;99.90;;;;;;5065859;28;19913;-71
2022/11/09 09:15:30;;;;;;;;;;;19.20;99.90;;;;;;5066002;28;20591;-71
2022/11/09 09:18:01;;;;;;;;;;;19.20;99.90;;;;;;5066164;28;19912;-72
2022/11/09 09:20:27;;;;;;;;;;;19.10;99.90;;;;;;5066184;28;19952;-70
2022/11/09 09:22:56;;;;;;;;;;;19.10;99.90;;;;;;5065815;28;19912;-72
2022/11/09 09:25:23;;;;;;;;;;;19.10;99.90;;;;;;5065580;28;20367;-73
2022/11/09 09:27:51;;;;;;;;;;;19.20;99.90;;;;;;5065929;28;19916;-71
2022/11/09 09:30:18;;;;;;;;;;;19.10;99.90;;;;;;5066048;28;19916;-70
2022/11/09 09:32:44;;;;;;;;;;;19.10;99.90;;;;;;5081025;28;19919;-71
2022/11/09 09:35:11;;;;;;;;;;;19.10;99.90;;;;;;5065819;28;20351;-72
2022/11/09 09:37:38;;;;;;;;;;;19.00;99.90;;;;;;5065703;28;19924;-71
2022/11/09 09:40:05;;;;;;;;;;;19.00;99.90;;;;;;5063993;28;20007;-72
2022/11/09 09:42:36;;;;;;;;;;;19.00;99.90;;;;;;5065706;28;20306;-70
2022/11/09 09:45:18;;;;;;;;;;;19.00;99.90;;;;;;5065442;28;20058;-74
2022/11/09 09:48:00;;;;;;;;;;;19.00;99.90;;;;;;5065552;28;20385;-72
2022/11/09 09:50:39;;;;;;;;;;;19.00;99.90;;;;;;5065249;28;20029;-71
2022/11/09 09:53:12;;;;;;;;;;;19.00;99.90;;;;;;5097258;28;20705;-73
2022/11/09 09:55:57;;;;;;;;;;;19.00;99.90;;;;;;5065268;28;19932;-74
2022/11/09 09:58:25;;;;;;;;;;;19.00;99.90;;;;;;5065522;28;19935;-71
2022/11/09 10:00:56;;;;;;;;;;;19.00;99.90;;;;;;5065037;28;19912;-71
2022/11/09 10:03:22;;;;;;;;;;;19.00;99.90;;;;;;5065294;28;19912;-72
2022/11/09 10:05:59;;;;;;;;;;;19.00;99.90;;;;;;5064894;28;19944;-71
2022/11/09 10:08:38;;;;;;;;;;;18.90;99.90;;;;;;5065378;28;20346;-73
2022/11/09 10:11:10;;;;;;;;;;;18.90;99.90;;;;;;5065103;28;19982;-75
2022/11/09 10:13:46;;;;;;;;;;;18.90;99.90;;;;;;5064933;28;20031;-74
2022/11/09 10:16:19;;;;;;;;;;;18.90;99.90;;;;;;5065251;28;19927;-70
2022/11/09 10:19:00;;;;;;;;;;;18.90;99.90;;;;;;5064716;28;19919;-70
2022/11/09 10:21:48;;;;;;;;;;;18.90;99.90;;;;;;5065349;28;19913;-73
2022/11/09 10:24:34;;;;;;;;;;;18.90;99.90;;;;;;5064762;28;19919;-73
2022/11/09 10:27:02;;;;;;;;;;;18.90;99.90;;;;;;5064372;28;19947;-72
2022/11/09 10:29:31;;;;;;;;;;;18.90;99.90;;;;;;5064904;28;19961;-74
2022/11/09 10:32:02;;;;;;;;;;;18.90;99.90;;;;;;5064498;28;19934;-71
2022/11/09 10:34:32;;;;;;;;;;;18.90;99.90;;;;;;5064821;28;19916;-70
2022/11/09 10:37:37;;;;;;;;;;;18.80;99.90;;;;;;5064803;28;19920;-71
2022/11/09 10:40:11;;;;;;;;;;;18.80;99.90;;;;;;5021359;28;19920;-73
2022/11/09 10:42:37;;;;;;;;;;;18.80;99.90;;;;;;5022080;28;19912;-72
2022/11/09 10:45:21;;;;;;;;;;;18.80;99.90;;;;;;5043758;28;19927;-71
2022/11/09 10:47:50;;;;;;;;;;;18.80;99.90;;;;;;5064771;28;20046;-73
2022/11/09 10:50:19;;;;;;;;;;;18.80;99.90;;;;;;5064652;28;20391;-72
2022/11/09 10:52:47;;;;;;;;;;;18.70;99.90;;;;;;5064573;28;20484;-72
2022/11/09 10:55:25;;;;;;;;;;;18.70;99.90;;;;;;5064218;28;19935;-74
2022/11/09 10:57:53;;;;;;;;;;;18.80;99.90;;;;;;5064456;28;19916;-73
2022/11/09 11:00:21;;;;;;;;;;;18.80;99.90;;;;;;5064594;28;20256;-73
2022/11/09 11:02:49;;;;;;;;;;;18.80;99.90;;;;;;5064491;28;19974;-72
2022/11/09 11:05:18;;;;;;;;;;;18.80;99.90;;;;;;5064313;28;19943;-73
2022/11/09 11:07:45;;;;;;;;;;;18.80;99.90;;;;;;5064432;28;19994;-73
2022/11/09 11:10:15;;;;;;;;;;;18.80;99.90;;;;;;5064030;28;19935;-73
2022/11/09 11:12:56;;;;;;;;;;;18.80;99.90;;;;;;5064560;28;20331;-71
2022/11/09 11:15:23;;;;;;;;;;;18.80;99.90;;;;;;5064278;28;19924;-73
2022/11/09 11:17:50;;;;;;;;;;;18.80;99.90;;;;;;5064592;28;19947;-71
2022/11/09 11:20:28;;;;;;;;;;;18.80;99.90;;;;;;5064371;28;20003;-73
2022/11/09 11:23:09;;;;;;;;;;;18.70;99.90;;;;;;5063892;28;19913;-72
2022/11/09 11:25:59;;;;;;;;;;;18.80;99.90;;;;;;5064102;28;19912;-69
2022/11/09 11:29:04;;;;;;;;;;;18.70;99.90;;;;;;5058861;28;20433;-71
2022/11/09 11:31:31;;;;;;;;;;;18.80;99.90;;;;;;5021228;28;19914;-74
2022/11/09 11:33:58;;;;;;;;;;;18.70;99.90;;;;;;5020951;28;19913;-71
2022/11/09 11:36:28;;;;;;;;;;;18.70;99.90;;;;;;5041075;28;20023;-73
2022/11/09 11:39:09;;;;;;;;;;;18.60;99.90;;;;;;5063789;28;19916;-73
2022/11/09 11:41:51;;;;;;;;;;;18.60;99.90;;;;;;5064066;28;19936;-68
2022/11/09 11:44:25;;;;;;;;;;;18.60;99.90;;;;;;5064112;28;19924;-73
2022/11/09 11:47:10;;;;;;;;;;;18.60;99.90;;;;;;5063858;28;19921;-71
2022/11/09 11:50:02;;;;;;;;;;;18.60;99.90;;;;;;5063764;28;20046;-73
2022/11/09 11:52:35;;;;;;;;;;;18.50;99.90;;;;;;5062049;28;19924;-71
2022/11/09 11:55:37;;;;;;;;;;;18.50;99.90;;;;;;5063580;28;20036;-75
2022/11/09 11:58:27;;;;;;;;;;;18.50;99.90;;;;;;5020959;28;19940;-74
2022/11/09 12:01:15;;;;;;;;;;;18.50;99.90;;;;;;5033079;28;19959;-74
2022/11/09 12:03:42;;;;;;;;;;;18.50;99.90;;;;;;5066445;28;19912;-73
2022/11/09 12:06:09;;;;;;;;;;;18.50;99.90;;;;;;5067787;28;19923;-73
2022/11/09 12:08:54;;;;;;;;;;;18.50;99.90;;;;;;5067523;28;19931;-73
2022/11/09 12:11:28;;;;;;;;;;;18.50;99.90;;;;;;5067964;28;20687;-74
2022/11/09 12:14:01;;;;;;;;;;;18.50;99.90;;;;;;5067775;28;19919;-72
2022/11/09 12:16:39;;;;;;;;;;;18.50;99.90;;;;;;5071430;28;19920;-72
2022/11/09 12:19:15;;;;;;;;;;;18.40;99.90;;;;;;5075763;28;19912;-71
2022/11/09 12:21:54;;;;;;;;;;;18.50;99.90;;;;;;5076014;28;19909;-73
2022/11/09 12:24:41;;;;;;;;;;;18.50;99.90;;;;;;5091505;28;19908;-74
2022/11/09 12:27:23;;;;;;;;;;;18.60;99.90;;;;;;5075419;28;19958;-68
2022/11/09 12:29:56;;;;;;;;;;;18.60;99.90;;;;;;5075794;28;19951;-67
2022/11/09 12:32:22;;;;;;;;;;;18.60;99.90;;;;;;5075849;28;19909;-67
2022/11/09 12:35:12;;;;;;;;;;;18.70;99.90;;;;;;5075346;28;20286;-68
2022/11/09 12:37:42;;;;;;;;;;;18.70;99.90;;;;;;5070019;28;19912;-68
2022/11/09 12:40:17;;;;;;;;;;;18.70;99.90;;;;;;5075416;28;19912;-68
2022/11/09 12:42:45;;;;;;;;;;;18.70;99.90;;;;;;5074405;28;20317;-69
2022/11/09 12:45:20;;;;;;;;;;;18.70;99.90;;;;;;5075392;28;19930;-71
2022/11/09 12:47:47;;;;;;;;;;;18.60;99.90;;;;;;5075441;28;19999;-68
2022/11/09 12:50:16;;;;;;;;;;;18.60;99.90;;;;;;5075166;28;19909;-73
2022/11/09 12:52:44;;;;;;;;;;;18.70;99.90;;;;;;5075179;28;19991;-68
2022/11/09 12:55:14;;;;;;;;;;;18.70;99.90;;;;;;5074956;28;19994;-68
2022/11/09 12:57:44;;;;;;;;;;;18.70;99.90;;;;;;5075161;28;19908;-68
2022/11/09 13:00:30;;;;;;;;;;;18.60;99.90;;;;;;5075146;28;19915;-68
2022/11/09 13:02:58;;;;;;;;;;;18.60;99.90;;;;;;5074766;28;19916;-70
2022/11/09 13:05:32;;;;;;;;;;;18.50;99.90;;;;;;5075072;28;20377;-68
2022/11/09 13:08:00;;;;;;;;;;;18.50;99.90;;;;;;5074906;28;19912;-73
2022/11/09 13:10:34;;;;;;;;;;;18.50;99.90;;;;;;5074781;28;19908;-74
2022/11/09 13:13:02;;;;;;;;;;;18.50;99.90;;;;;;5074537;28;19915;-73
2022/11/09 13:15:31;;;;;;;;;;;18.40;99.90;;;;;;5074976;28;19917;-74
2022/11/09 13:18:05;;;;;;;;;;;18.40;99.90;;;;;;5074799;28;19909;-74
2022/11/09 13:20:35;;;;;;;;;;;18.40;99.90;;;;;;5077118;28;19916;-74
2022/11/09 13:23:03;;;;;;;;;;;18.40;99.90;;;;;;5074185;28;20394;-71
2022/11/09 13:25:33;;;;;;;;;;;18.30;99.90;;;;;;5074545;28;19908;-71
2022/11/09 13:28:00;;;;;;;;;;;18.30;99.90;;;;;;5074531;28;19955;-68
2022/11/09 13:30:37;;;;;;;;;;;18.30;99.90;;;;;;5074394;28;20286;-67
2022/11/09 13:33:09;;;;;;;;;;;18.40;99.90;;;;;;5074325;28;19988;-67
2022/11/09 13:35:39;;;;;;;;;;;18.50;99.90;;;;;;5074361;28;19931;-71
2022/11/09 13:38:25;;;;;;;;;;;18.50;99.90;;;;;;5074298;28;19915;-72
2022/11/09 13:40:56;;;;;;;;;;;18.50;99.90;;;;;;5074001;28;19958;-71
2022/11/09 13:43:32;;;;;;;;;;;18.60;99.90;;;;;;5074339;28;19930;-68
2022/11/09 13:46:00;;;;;;;;;;;18.60;99.90;;;;;;5074185;28;19908;-67
2022/11/09 13:48:39;;;;;;;;;;;18.60;99.90;;;;;;5074305;28;19931;-71
2022/11/09 13:51:12;;;;;;;;;;;18.60;99.90;;;;;;5074003;28;20351;-74
2022/11/09 13:53:39;;;;;;;;;;;18.60;99.90;;;;;;5074181;28;20035;-72
2022/11/09 13:56:24;;;;;;;;;;;18.60;99.90;;;;;;5073974;28;19942;-73
2022/11/09 13:58:51;;;;;;;;;;;18.60;99.90;;;;;;5074023;28;19958;-74
2022/11/09 14:01:44;;;;;;;;;;;18.60;99.90;;;;;;5074048;28;19917;-73
2022/11/09 14:04:20;;;;;;;;;;;18.60;99.90;;;;;;5072067;28;20286;-73
2022/11/09 14:06:46;;;;;;;;;;;18.60;99.90;;;;;;5073668;28;19915;-73
2022/11/09 14:09:18;;;;;;;;;;;18.50;99.90;;;;;;5073796;28;19951;-73
2022/11/09 14:11:54;;;;;;;;;;;18.60;99.90;;;;;;5073965;28;20325;-73
2022/11/09 14:14:34;;;;;;;;;;;18.50;99.90;;;;;;5073809;28;19915;-74
2022/11/09 14:17:06;;;;;;;;;;;18.50;99.90;;;;;;5073803;28;20010;-74
2022/11/09 14:19:44;;;;;;;;;;;18.50;99.90;;;;;;5074058;28;19967;-75
2022/11/09 14:22:15;;;;;;;;;;;18.40;99.90;;;;;;5073879;28;19915;-74
2022/11/09 14:24:42;;;;;;;;;;;18.40;99.90;;;;;;5073203;28;19908;-74
2022/11/09 14:27:09;;;;;;;;;;;18.40;99.90;;;;;;5073343;28;19912;-73
2022/11/09 14:29:47;;;;;;;;;;;18.40;99.90;;;;;;5073579;28;19919;-75
2022/11/09 14:32:28;;;;;;;;;;;18.50;99.90;;;;;;5073563;28;20255;-75
2022/11/09 14:35:12;;;;;;;;;;;18.40;99.90;;;;;;5073466;28;19920;-74